createdAt,value
2019-02-26T00:01:26.085Z,9.75
2019-02-26T00:03:56.377Z,9.83
2019-02-26T00:06:30.134Z,9.80
2019-02-26T00:09:01.823Z,9.65
2019-02-26T00:11:36.182Z,9.95
2019-02-26T00:14:07.451Z,10.15
2019-02-26T00:16:39.986Z,10.00
2019-02-26T00:19:11.941Z,9.93
2019-02-26T00:21:45.662Z,10.05
2019-02-26T00:24:16.859Z,10.40
2019-02-26T00:26:47.971Z,10.50
2019-02-26T00:29:18.699Z,10.23
2019-02-26T00:31:50.785Z,10.75
2019-02-26T00:34:21.909Z,10.23
2019-02-26T00:36:52.624Z,9.90
2019-02-26T00:39:24.972Z,9.98
2019-02-26T00:41:56.298Z,9.68
2019-02-26T00:44:29.888Z,10.20
2019-02-26T00:47:04.317Z,10.48
2019-02-26T00:49:34.376Z,9.90
2019-02-26T00:52:08.712Z,10.43
2019-02-26T00:54:40.158Z,10.20
2019-02-26T00:57:11.439Z,9.50
2019-02-26T00:59:45.785Z,9.28
2019-02-26T01:02:17.065Z,9.98
2019-02-26T01:04:48.538Z,9.38
2019-02-26T01:07:23.849Z,9.12
2019-02-26T01:09:56.893Z,9.50
2019-02-26T01:12:27.727Z,9.30
2019-02-26T01:14:58.719Z,9.73
2019-02-26T01:17:31.251Z,9.50
2019-02-26T01:20:05.362Z,9.10
2019-02-26T01:22:37.646Z,9.07
2019-02-26T01:25:10.116Z,9.10
2019-02-26T01:27:41.371Z,9.58
2019-02-26T01:30:18.157Z,9.48
2019-02-26T01:32:47.483Z,8.87
2019-02-26T01:35:18.350Z,9.45
2019-02-26T01:37:51.325Z,9.08
2019-02-26T01:40:24.008Z,8.70
2019-02-26T01:42:57.933Z,8.73
2019-02-26T01:45:30.484Z,8.95
2019-02-26T01:48:01.520Z,9.10
2019-02-26T01:50:33.455Z,9.07
2019-02-26T01:53:05.907Z,9.40
2019-02-26T01:55:36.675Z,8.83
2019-02-26T01:58:07.457Z,9.10
2019-02-26T02:00:38.667Z,9.45
2019-02-26T02:03:10.718Z,9.60
2019-02-26T02:05:43.295Z,9.33
2019-02-26T02:08:15.565Z,9.80
2019-02-26T02:10:46.665Z,9.53
2019-02-26T02:13:17.409Z,9.63
2019-02-26T02:15:48.126Z,9.03
2019-02-26T02:18:20.670Z,9.25
2019-02-26T02:20:51.391Z,9.63
2019-02-26T02:23:23.568Z,9.63
2019-02-26T02:25:55.041Z,9.85
2019-02-26T02:28:26.338Z,10.07
2019-02-26T02:30:58.831Z,10.40
2019-02-26T02:33:32.075Z,10.18
2019-02-26T02:36:02.462Z,10.20
2019-02-26T02:38:36.507Z,9.45
2019-02-26T02:41:05.783Z,9.60
2019-02-26T02:43:36.646Z,9.60
2019-02-26T02:46:07.371Z,9.18
2019-02-26T02:48:38.654Z,9.27
2019-02-26T02:51:13.149Z,9.20
2019-02-26T02:53:41.922Z,9.43
2019-02-26T02:56:15.150Z,9.58
2019-02-26T02:58:46.878Z,9.50
2019-02-26T03:01:21.790Z,9.40
2019-02-26T03:03:50.558Z,9.35
2019-02-26T03:06:24.245Z,8.73
2019-02-26T03:08:55.524Z,8.60
2019-02-26T03:11:26.234Z,8.63
2019-02-26T03:13:57.056Z,9.55
2019-02-26T03:16:28.094Z,9.10
2019-02-26T03:18:59.326Z,9.03
2019-02-26T03:21:31.447Z,8.98
2019-02-26T03:24:03.376Z,8.85
2019-02-26T03:26:34.985Z,8.85
2019-02-26T03:29:05.921Z,9.25
2019-02-26T03:31:40.555Z,9.63
2019-02-26T03:34:14.713Z,8.65
2019-02-26T03:36:45.395Z,9.10
2019-02-26T03:39:15.202Z,9.10
2019-02-26T03:41:48.495Z,9.10
2019-02-26T03:44:19.199Z,9.13
2019-02-26T03:46:49.947Z,9.58
2019-02-26T03:49:20.665Z,9.80
2019-02-26T03:51:51.346Z,9.53
2019-02-26T03:54:22.118Z,9.30
2019-02-26T03:56:52.998Z,9.40
2019-02-26T03:59:24.729Z,9.20
2019-02-26T04:01:55.514Z,9.68
2019-02-26T04:04:28.393Z,9.43
2019-02-26T04:07:01.197Z,9.05
2019-02-26T04:09:31.692Z,9.03
2019-02-26T04:12:02.713Z,9.75
2019-02-26T04:14:33.779Z,9.35
2019-02-26T04:17:06.446Z,9.75
2019-02-26T04:19:38.177Z,9.30
2019-02-26T04:22:48.884Z,9.18
2019-02-26T04:25:22.247Z,9.30
2019-02-26T04:27:59.914Z,9.95
2019-02-26T04:31:12.183Z,9.50
2019-02-26T04:34:08.582Z,9.50
2019-02-26T04:37:13.702Z,8.65
2019-02-26T04:40:20.634Z,9.83
2019-02-26T04:43:34.141Z,9.27
2019-02-26T04:46:25.531Z,9.50
2019-02-26T04:48:57.881Z,9.97
2019-02-26T04:51:29.600Z,10.05
2019-02-26T04:54:02.143Z,9.40
2019-02-26T04:56:36.375Z,9.85
2019-02-26T04:59:09.314Z,10.30
2019-02-26T05:01:39.081Z,8.98
2019-02-26T05:04:10.078Z,9.68
2019-02-26T05:06:40.974Z,10.10
2019-02-26T05:09:12.341Z,9.83
2019-02-26T05:11:43.079Z,9.65
2019-02-26T05:14:15.403Z,9.60
2019-02-26T05:16:46.789Z,9.30
2019-02-26T05:19:21.238Z,9.23
2019-02-26T05:21:50.433Z,8.95
2019-02-26T05:24:23.788Z,8.75
2019-02-26T05:26:54.859Z,9.48
2019-02-26T05:29:26.093Z,9.65
2019-02-26T05:31:58.890Z,9.40
2019-02-26T05:34:29.345Z,9.30
2019-02-26T05:37:02.197Z,9.70
2019-02-26T05:39:32.880Z,9.53
2019-02-26T05:42:06.189Z,9.35
2019-02-26T05:44:36.061Z,9.38
2019-02-26T05:47:07.354Z,9.93
2019-02-26T05:49:40.749Z,8.93
2019-02-26T05:52:10.916Z,10.10
2019-02-26T05:54:41.904Z,9.93
2019-02-26T05:57:25.918Z,9.98
2019-02-26T05:59:46.148Z,10.23
2019-02-26T06:02:19.145Z,10.28
2019-02-26T06:04:49.762Z,9.63
2019-02-26T06:07:24.140Z,9.90
2019-02-26T06:09:56.169Z,10.38
2019-02-26T06:12:26.048Z,10.18
2019-02-26T06:15:00.704Z,10.55
2019-02-26T06:17:30.087Z,10.18
2019-02-26T06:20:11.055Z,10.60
2019-02-26T06:22:42.216Z,10.05
2019-02-26T06:25:18.659Z,10.13
2019-02-26T06:27:45.990Z,10.47
2019-02-26T06:30:16.916Z,9.60
2019-02-26T06:32:47.700Z,10.05
2019-02-26T06:35:19.331Z,10.88
2019-02-26T06:37:51.580Z,10.43
2019-02-26T06:40:22.354Z,9.97
2019-02-26T06:42:53.121Z,9.83
2019-02-26T06:45:24.219Z,9.78
2019-02-26T06:47:56.397Z,10.40
2019-02-26T06:50:27.421Z,10.48
2019-02-26T06:52:58.179Z,10.68
2019-02-26T06:55:28.898Z,10.48
2019-02-26T06:58:26.273Z,11.22
2019-02-26T07:00:58.933Z,10.40
2019-02-26T07:03:30.006Z,10.53
2019-02-26T07:06:03.200Z,11.63
2019-02-26T07:08:33.413Z,11.33
2019-02-26T07:11:04.551Z,10.78
2019-02-26T07:13:36.709Z,11.08
2019-02-26T07:16:09.208Z,10.70
2019-02-26T07:18:40.023Z,11.35
2019-02-26T07:21:10.732Z,11.20
2019-02-26T07:23:41.467Z,11.43
2019-02-26T07:26:13.641Z,10.98
2019-02-26T07:28:46.402Z,11.78
2019-02-26T07:31:18.207Z,11.93
2019-02-26T07:33:51.026Z,10.75
2019-02-26T07:36:23.611Z,11.20
2019-02-26T07:38:56.458Z,11.08
2019-02-26T07:41:29.830Z,10.55
2019-02-26T07:44:00.012Z,10.80
2019-02-26T07:46:32.837Z,10.88
2019-02-26T07:49:04.755Z,10.13
2019-02-26T07:51:38.070Z,9.95
2019-02-26T07:54:09.063Z,10.15
2019-02-26T07:56:39.782Z,10.13
2019-02-26T07:59:12.452Z,9.33
2019-02-26T08:01:45.257Z,10.13
2019-02-26T08:04:18.325Z,9.63
2019-02-26T08:06:48.846Z,9.20
2019-02-26T08:09:23.124Z,8.60
2019-02-26T08:11:52.545Z,8.60
2019-02-26T08:14:25.119Z,8.58
2019-02-26T08:16:56.771Z,9.25
2019-02-26T08:19:29.707Z,9.58
2019-02-26T08:22:00.931Z,8.90
2019-02-26T08:24:32.007Z,9.25
2019-02-26T08:27:03.419Z,8.63
2019-02-26T08:29:36.192Z,9.00
2019-02-26T08:32:07.246Z,8.95
2019-02-26T08:34:39.764Z,8.80
2019-02-26T08:37:10.755Z,9.00
2019-02-26T08:39:41.487Z,8.40
2019-02-26T08:42:12.959Z,8.60
2019-02-26T08:44:46.228Z,8.00
2019-02-26T08:47:18.654Z,8.18
2019-02-26T08:49:49.184Z,7.75
2019-02-26T08:52:22.837Z,7.70
2019-02-26T08:54:53.007Z,7.65
2019-02-26T08:57:24.042Z,7.80
2019-02-26T08:59:54.792Z,7.58
2019-02-26T09:02:25.631Z,7.67
2019-02-26T09:04:59.146Z,7.80
2019-02-26T09:07:30.129Z,7.47
2019-02-26T09:10:00.830Z,8.00
2019-02-26T09:12:31.613Z,7.72
2019-02-26T09:15:04.019Z,8.05
2019-02-26T09:17:36.994Z,8.10
2019-02-26T09:20:12.340Z,8.78
2019-02-26T09:22:45.818Z,8.35
2019-02-26T09:25:16.147Z,8.68
2019-02-26T09:27:47.063Z,8.43
2019-02-26T09:30:18.323Z,8.68
2019-02-26T09:32:52.305Z,8.93
2019-02-26T09:35:27.042Z,9.08
2019-02-26T09:38:00.737Z,9.30
2019-02-26T09:40:33.448Z,8.93
2019-02-26T09:43:02.537Z,8.28
2019-02-26T09:45:33.427Z,8.33
2019-02-26T09:48:04.362Z,8.33
2019-02-26T09:50:36.753Z,8.87
2019-02-26T09:53:08.157Z,8.93
2019-02-26T09:55:38.949Z,9.08
2019-02-26T09:58:09.949Z,8.53
2019-02-26T10:00:42.920Z,8.28
2019-02-26T10:03:15.083Z,8.40
2019-02-26T10:05:47.800Z,8.67
2019-02-26T10:08:19.997Z,8.40
2019-02-26T10:10:54.195Z,8.17
2019-02-26T10:13:27.738Z,8.03
2019-02-26T10:16:00.848Z,7.60
2019-02-26T10:18:32.995Z,8.68
2019-02-26T10:21:05.980Z,8.13
2019-02-26T10:23:36.368Z,7.70
2019-02-26T10:26:09.992Z,7.70
2019-02-26T10:28:42.670Z,8.50
2019-02-26T10:31:12.546Z,7.42
2019-02-26T10:33:45.776Z,7.62
2019-02-26T10:36:18.285Z,7.37
2019-02-26T10:38:50.902Z,8.00
2019-02-26T10:41:22.119Z,7.15
2019-02-26T10:43:52.941Z,7.17
2019-02-26T10:46:23.770Z,6.95
2019-02-26T10:48:55.471Z,7.87
2019-02-26T10:51:27.247Z,7.20
2019-02-26T10:53:59.966Z,7.97
2019-02-26T10:56:33.369Z,7.58
2019-02-26T10:59:05.924Z,6.80
2019-02-26T11:01:35.596Z,6.95
2019-02-26T11:04:06.542Z,6.73
2019-02-26T11:06:39.786Z,6.80
2019-02-26T11:09:17.348Z,6.65
2019-02-26T11:11:45.751Z,6.05
2019-02-26T11:14:17.533Z,5.65
2019-02-26T11:16:48.934Z,5.58
2019-02-26T11:19:19.692Z,4.65
2019-02-26T11:21:55.406Z,4.35
2019-02-26T11:24:25.721Z,4.47
2019-02-26T11:26:56.263Z,4.20
2019-02-26T11:29:28.534Z,4.50
2019-02-26T11:32:01.695Z,4.12
2019-02-26T11:34:33.969Z,4.42
2019-02-26T11:37:08.916Z,4.67
2019-02-26T11:39:38.132Z,4.83
2019-02-26T11:42:10.481Z,4.23
2019-02-26T11:44:41.472Z,4.45
2019-02-26T11:47:13.723Z,4.58
2019-02-26T11:49:46.641Z,4.40
2019-02-26T11:52:19.606Z,5.40
2019-02-26T11:54:49.988Z,4.53
2019-02-26T11:57:20.787Z,4.47
2019-02-26T11:59:51.618Z,4.05
2019-02-26T12:02:26.678Z,4.42
2019-02-26T12:04:54.951Z,4.35
2019-02-26T12:07:27.424Z,5.00
2019-02-26T12:10:04.677Z,4.70
2019-02-26T12:12:34.227Z,4.58
2019-02-26T12:15:07.341Z,5.10
2019-02-26T12:17:39.687Z,4.97
2019-02-26T12:20:14.634Z,4.80
2019-02-26T12:22:47.967Z,4.37
2019-02-26T12:25:17.785Z,4.55
2019-02-26T12:27:48.641Z,4.65
2019-02-26T12:30:20.671Z,5.30
2019-02-26T12:32:54.449Z,5.00
2019-02-26T12:35:24.838Z,4.78
2019-02-26T12:37:59.351Z,5.03
2019-02-26T12:40:28.626Z,4.85
2019-02-26T12:43:02.014Z,5.13
2019-02-26T12:45:35.123Z,5.20
2019-02-26T12:48:06.454Z,6.10
2019-02-26T12:50:40.465Z,5.90
2019-02-26T12:53:14.969Z,6.05
2019-02-26T12:55:44.106Z,5.65
2019-02-26T12:58:17.629Z,5.53
2019-02-26T13:00:47.607Z,6.00
2019-02-26T13:05:51.780Z,6.28
2019-02-26T13:08:24.274Z,5.83
2019-02-26T13:10:58.254Z,6.15
2019-02-26T13:13:28.187Z,5.97
2019-02-26T13:15:58.927Z,6.57
2019-02-26T13:18:30.684Z,6.65
2019-02-26T13:21:03.865Z,6.28
2019-02-26T13:23:34.398Z,7.50
2019-02-26T13:26:08.304Z,6.62
2019-02-26T13:28:38.784Z,6.42
2019-02-26T13:31:13.738Z,6.57
2019-02-26T13:33:43.024Z,7.15
2019-02-26T13:36:14.926Z,6.78
2019-02-26T13:38:48.971Z,7.03
2019-02-26T13:43:50.658Z,6.83
2019-02-26T13:46:21.703Z,6.92
2019-02-26T13:48:52.512Z,7.50
2019-02-26T13:51:23.423Z,7.35
2019-02-26T13:53:54.206Z,7.35
2019-02-26T13:56:25.082Z,7.97
2019-02-26T13:58:55.908Z,7.62
2019-02-26T14:01:26.836Z,7.40
2019-02-26T14:03:57.599Z,7.65
2019-02-26T14:06:29.730Z,8.23
2019-02-26T14:09:00.550Z,7.50
2019-02-26T14:11:33.304Z,7.80
2019-02-26T14:14:04.236Z,7.78
2019-02-26T14:16:35.561Z,7.95
2019-02-26T14:19:06.823Z,8.35
2019-02-26T14:21:37.670Z,8.10
2019-02-26T14:24:08.428Z,7.92
2019-02-26T14:26:39.180Z,7.85
2019-02-26T14:29:10.197Z,8.48
2019-02-26T14:31:41.238Z,9.03
2019-02-26T14:34:12.069Z,9.03
2019-02-26T14:36:43.162Z,8.70
2019-02-26T14:39:14.280Z,8.00
2019-02-26T14:41:45.185Z,8.10
2019-02-26T14:44:16.026Z,8.33
2019-02-26T14:46:46.963Z,7.83
2019-02-26T14:49:17.728Z,8.18
2019-02-26T14:51:48.530Z,8.40
2019-02-26T14:54:19.398Z,8.68
2019-02-26T14:56:50.239Z,7.60
2019-02-26T14:59:21.011Z,8.83
2019-02-26T15:01:52.062Z,8.83
2019-02-26T15:04:22.987Z,9.03
2019-02-26T15:06:55.847Z,8.70
2019-02-26T15:09:26.877Z,8.60
2019-02-26T15:11:57.863Z,8.25
2019-02-26T15:14:28.764Z,8.10
2019-02-26T15:16:59.601Z,7.78
2019-02-26T15:19:30.347Z,7.70
2019-02-26T15:22:01.103Z,7.10
2019-02-26T15:24:33.032Z,7.92
2019-02-26T15:27:03.877Z,7.90
2019-02-26T15:29:34.969Z,7.50
2019-02-26T15:32:06.019Z,7.62
2019-02-26T15:34:36.881Z,8.28
2019-02-26T15:37:07.732Z,7.60
2019-02-26T15:39:39.504Z,7.70
2019-02-26T15:42:10.294Z,7.63
2019-02-26T15:44:41.103Z,7.70
2019-02-26T15:47:11.903Z,7.83
2019-02-26T15:49:42.737Z,8.20
2019-02-26T15:52:13.528Z,7.50
2019-02-26T15:54:44.407Z,7.20
2019-02-26T15:57:15.256Z,7.57
2019-02-26T15:59:46.246Z,7.60
2019-02-26T16:02:17.188Z,7.42
2019-02-26T16:04:48.000Z,7.50
2019-02-26T16:07:18.871Z,6.58
2019-02-26T16:09:49.760Z,6.60
2019-02-26T16:12:20.889Z,5.47
2019-02-26T16:14:52.383Z,5.47
2019-02-26T16:17:23.207Z,5.65
2019-02-26T16:19:54.276Z,5.95
2019-02-26T16:22:25.053Z,5.47
2019-02-26T16:24:55.954Z,5.53
2019-02-26T16:27:26.763Z,5.35
2019-02-26T16:29:57.724Z,5.75
2019-02-26T16:32:28.507Z,6.00
2019-02-26T16:35:00.378Z,5.43
2019-02-26T16:37:32.432Z,5.87
2019-02-26T16:40:03.344Z,5.08
2019-02-26T16:42:34.231Z,5.80
2019-02-26T16:45:06.063Z,5.12
2019-02-26T16:47:37.419Z,5.65
2019-02-26T16:50:13.172Z,5.12
2019-02-26T16:52:42.941Z,5.20
2019-02-26T16:55:17.119Z,5.78
2019-02-26T16:57:46.776Z,5.35
2019-02-26T17:00:20.544Z,5.70
2019-02-26T17:02:51.599Z,5.15
2019-02-26T17:05:22.832Z,5.45
2019-02-26T17:07:54.012Z,4.85
2019-02-26T17:10:29.124Z,5.08
2019-02-26T17:13:01.767Z,4.58
2019-02-26T17:15:30.410Z,4.62
2019-02-26T17:18:01.332Z,5.20
2019-02-26T17:20:33.466Z,5.30
2019-02-26T17:23:04.920Z,5.37
2019-02-26T17:25:35.772Z,5.37
2019-02-26T17:28:06.704Z,5.47
2019-02-26T17:30:37.716Z,5.33
2019-02-26T17:33:11.401Z,6.00
2019-02-26T17:35:41.505Z,5.20
2019-02-26T17:38:12.919Z,5.40
2019-02-26T17:40:45.265Z,5.47
2019-02-26T17:43:17.187Z,5.50
2019-02-26T17:45:48.117Z,5.92
2019-02-26T17:48:18.941Z,5.65
2019-02-26T17:50:49.955Z,5.87
2019-02-26T17:53:20.796Z,6.65
2019-02-26T17:55:51.832Z,6.10
2019-02-26T17:58:22.702Z,6.60
2019-02-26T18:00:56.289Z,6.35
2019-02-26T18:03:28.276Z,6.35
2019-02-26T18:06:00.095Z,6.55
2019-02-26T18:08:30.916Z,6.30
2019-02-26T18:11:01.822Z,6.05
2019-02-26T18:13:32.826Z,6.28
2019-02-26T18:16:09.059Z,6.00
2019-02-26T18:18:37.000Z,6.47
2019-02-26T18:21:07.908Z,6.10
2019-02-26T18:23:38.691Z,6.28
2019-02-26T18:26:09.587Z,6.05
2019-02-26T18:28:40.794Z,9.55
2019-02-26T18:31:11.605Z,9.00
2019-02-26T18:33:42.627Z,8.00
2019-02-26T18:36:13.505Z,7.92
2019-02-26T18:38:48.330Z,8.78
2019-02-26T18:41:17.330Z,7.92
2019-02-26T18:43:48.170Z,8.68
2019-02-26T18:46:19.979Z,8.48
2019-02-26T18:48:50.882Z,8.60
2019-02-26T18:51:21.654Z,8.97
2019-02-26T18:53:52.594Z,8.63
2019-02-26T18:56:23.428Z,8.60
2019-02-26T18:58:54.337Z,8.35
2019-02-26T19:01:25.435Z,8.50
2019-02-26T19:03:56.323Z,8.33
2019-02-26T19:06:27.510Z,8.88
2019-02-26T19:08:58.477Z,9.18
2019-02-26T19:11:29.398Z,8.70
2019-02-26T19:14:00.314Z,9.55
2019-02-26T19:16:31.082Z,9.00
2019-02-26T19:19:03.149Z,9.38
2019-02-26T19:21:34.019Z,8.50
2019-02-26T19:24:05.227Z,9.48
2019-02-26T19:26:36.159Z,9.30
2019-02-26T19:29:07.350Z,9.63
2019-02-26T19:31:38.211Z,10.98
2019-02-26T19:34:09.293Z,10.63
2019-02-26T19:36:40.151Z,9.90
2019-02-26T19:39:11.079Z,10.20
2019-02-26T19:41:45.265Z,10.08
2019-02-26T19:44:14.776Z,9.98
2019-02-26T19:46:49.414Z,10.15
2019-02-26T19:49:18.216Z,10.10
2019-02-26T19:51:49.103Z,10.68
2019-02-26T19:54:19.885Z,9.93
2019-02-26T19:56:50.689Z,11.12
2019-02-26T19:59:21.446Z,10.20
2019-02-26T20:01:52.841Z,9.83
2019-02-26T20:04:23.675Z,10.35
2019-02-26T20:06:58.476Z,11.18
2019-02-26T20:09:27.257Z,11.10
2019-02-26T20:11:58.447Z,10.73
2019-02-26T20:14:29.252Z,10.63
2019-02-26T20:17:04.922Z,11.20
2019-02-26T20:19:32.725Z,11.68
2019-02-26T20:22:03.594Z,11.73
2019-02-26T20:24:34.464Z,11.60
2019-02-26T20:27:05.346Z,11.97
2019-02-26T20:29:36.220Z,11.67
2019-02-26T20:32:08.065Z,11.53
2019-02-26T20:34:39.182Z,12.17
2019-02-26T20:37:10.200Z,12.20
2019-02-26T20:39:43.574Z,11.40
2019-02-26T20:42:13.787Z,11.88
2019-02-26T20:44:46.425Z,11.30
2019-02-26T20:47:17.284Z,11.78
2019-02-26T20:49:48.162Z,11.40
2019-02-26T20:52:19.189Z,12.05
2019-02-26T20:54:50.319Z,11.90
2019-02-26T20:57:21.175Z,12.77
2019-02-26T20:59:52.452Z,12.37
2019-02-26T21:02:23.778Z,13.00
2019-02-26T21:04:54.857Z,12.80
2019-02-26T21:07:26.010Z,13.10
2019-02-26T21:10:04.044Z,12.68
2019-02-26T21:12:39.807Z,14.30
2019-02-26T21:15:13.885Z,15.80
2019-02-26T21:17:45.387Z,14.95
2019-02-26T21:20:16.489Z,15.13
2019-02-26T21:22:48.280Z,14.30
2019-02-26T21:25:19.088Z,14.30
2019-02-26T21:27:50.222Z,12.90
2019-02-26T21:30:21.696Z,13.72
2019-02-26T21:32:52.485Z,13.40
2019-02-26T21:35:23.386Z,13.35
2019-02-26T21:37:54.682Z,13.53
2019-02-26T21:40:25.597Z,14.15
2019-02-26T21:42:56.543Z,14.05
2019-02-26T21:45:29.204Z,13.48
2019-02-26T21:48:02.576Z,13.58
2019-02-26T21:50:32.765Z,13.10
2019-02-26T21:53:03.741Z,13.80
2019-02-26T21:55:43.989Z,12.75
2019-02-26T21:58:07.523Z,13.40
2019-02-26T22:00:39.050Z,14.55
2019-02-26T22:03:10.875Z,13.18
2019-02-26T22:05:41.854Z,13.90
2019-02-26T22:08:12.931Z,14.73
2019-02-26T22:10:43.957Z,14.63
2019-02-26T22:13:15.013Z,14.73
2019-02-26T22:15:46.141Z,14.13
2019-02-26T22:18:17.089Z,14.80
2019-02-26T22:20:48.194Z,15.58
2019-02-26T22:23:19.081Z,14.43
2019-02-26T22:25:52.553Z,13.98
2019-02-26T22:28:23.113Z,13.68
2019-02-26T22:30:55.906Z,14.03
2019-02-26T22:33:27.174Z,14.10
2019-02-26T22:35:59.952Z,13.87
2019-02-26T22:38:30.515Z,14.20
2019-02-26T22:41:02.294Z,13.95
2019-02-26T22:43:34.207Z,13.90
2019-02-26T22:46:05.135Z,13.78
2019-02-26T22:48:35.994Z,13.85
2019-02-26T22:51:06.960Z,14.05
2019-02-26T22:53:37.926Z,14.45
2019-02-26T22:56:08.753Z,14.50
2019-02-26T22:58:39.601Z,14.40
2019-02-26T23:01:18.554Z,13.90
2019-02-26T23:03:51.221Z,14.58
2019-02-26T23:06:22.183Z,13.72
2019-02-26T23:08:53.195Z,14.10
2019-02-26T23:11:24.841Z,14.58
2019-02-26T23:13:56.428Z,13.40
2019-02-26T23:16:28.943Z,14.10
2019-02-26T23:19:01.349Z,13.72
2019-02-26T23:21:33.675Z,13.98
2019-02-26T23:24:05.127Z,13.85
2019-02-26T23:26:36.437Z,14.33
2019-02-26T23:29:07.373Z,13.90
2019-02-26T23:31:38.200Z,14.00
2019-02-26T23:34:09.142Z,13.22
2019-02-26T23:36:40.239Z,13.70
2019-02-26T23:39:14.007Z,13.95
2019-02-26T23:41:46.492Z,13.73
2019-02-26T23:44:18.113Z,13.83
2019-02-26T23:46:49.658Z,13.50
2019-02-26T23:49:21.248Z,12.98
2019-02-26T23:51:53.707Z,13.60
2019-02-26T23:54:24.772Z,13.70
2019-02-26T23:56:55.759Z,13.25
2019-02-26T23:59:26.658Z,13.28
